sensor_id;sensor_type;location;lat;lon;timestamp;pressure;altitude;pressure_sealevel;temperature;humidity
55317;BME280;41178;48.956;8.130;2022-08-19T00:01:40;99346.16;;;28.49;46.90
55317;BME280;41178;48.956;8.130;2022-08-19T00:03:42;99352.50;;;28.15;47.94
55317;BME280;41178;48.956;8.130;2022-08-19T00:05:43;99344.47;;;28.29;47.87
55317;BME280;41178;48.956;8.130;2022-08-19T00:07:45;99350.09;;;28.04;48.38
55317;BME280;41178;48.956;8.130;2022-08-19T00:09:47;99354.88;;;27.88;48.13
55317;BME280;41178;48.956;8.130;2022-08-19T00:11:51;99358.59;;;28.36;47.69
55317;BME280;41178;48.956;8.130;2022-08-19T00:13:54;99359.94;;;28.39;47.51
55317;BME280;41178;48.956;8.130;2022-08-19T00:15:57;99354.47;;;28.39;47.32
55317;BME280;41178;48.956;8.130;2022-08-19T00:18:00;99349.66;;;27.91;48.48
55317;BME280;41178;48.956;8.130;2022-08-19T00:20:03;99359.31;;;28.18;47.62
55317;BME280;41178;48.956;8.130;2022-08-19T00:22:05;99354.97;;;27.72;48.98
55317;BME280;41178;48.956;8.130;2022-08-19T00:24:08;99342.41;;;27.71;48.93
55317;BME280;41178;48.956;8.130;2022-08-19T00:26:10;99346.09;;;27.46;49.18
55317;BME280;41178;48.956;8.130;2022-08-19T00:28:12;99332.69;;;27.50;48.92
55317;BME280;41178;48.956;8.130;2022-08-19T00:30:14;99321.06;;;27.78;48.41
55317;BME280;41178;48.956;8.130;2022-08-19T00:32:16;99327.50;;;27.93;48.14
55317;BME280;41178;48.956;8.130;2022-08-19T00:34:20;99341.38;;;27.67;48.52
55317;BME280;41178;48.956;8.130;2022-08-19T00:36:22;99331.00;;;27.64;49.06
55317;BME280;41178;48.956;8.130;2022-08-19T00:38:24;99335.75;;;28.22;47.31
55317;BME280;41178;48.956;8.130;2022-08-19T00:40:38;99341.44;;;25.68;52.63
55317;BME280;41178;48.956;8.130;2022-08-19T00:42:40;99315.84;;;26.46;51.20
55317;BME280;41178;48.956;8.130;2022-08-19T00:44:42;99320.22;;;26.63;51.19
55317;BME280;41178;48.956;8.130;2022-08-19T00:46:46;99342.56;;;26.49;51.43
55317;BME280;41178;48.956;8.130;2022-08-19T00:49:00;99328.38;;;26.63;51.12
55317;BME280;41178;48.956;8.130;2022-08-19T00:51:05;99333.28;;;27.41;49.61
55317;BME280;41178;48.956;8.130;2022-08-19T00:53:07;99336.34;;;27.79;48.78
55317;BME280;41178;48.956;8.130;2022-08-19T00:55:09;99332.38;;;27.61;49.12
55317;BME280;41178;48.956;8.130;2022-08-19T00:57:15;99326.28;;;27.75;48.94
55317;BME280;41178;48.956;8.130;2022-08-19T00:59:18;99319.53;;;27.62;49.40
55317;BME280;41178;48.956;8.130;2022-08-19T01:01:42;99319.59;;;28.55;47.61
55317;BME280;41178;48.956;8.130;2022-08-19T01:03:44;99328.19;;;28.43;47.65
55317;BME280;41178;48.956;8.130;2022-08-19T01:05:58;99334.44;;;28.14;48.57
55317;BME280;41178;48.956;8.130;2022-08-19T01:08:03;99339.66;;;28.11;48.17
55317;BME280;41178;48.956;8.130;2022-08-19T01:10:09;99353.56;;;28.14;48.01
55317;BME280;41178;48.956;8.130;2022-08-19T01:12:11;99355.53;;;28.09;48.10
55317;BME280;41178;48.956;8.130;2022-08-19T01:14:13;99355.16;;;27.86;48.31
55317;BME280;41178;48.956;8.130;2022-08-19T01:16:18;99355.59;;;27.54;49.57
55317;BME280;41178;48.956;8.130;2022-08-19T01:18:22;99363.94;;;27.78;49.13
55317;BME280;41178;48.956;8.130;2022-08-19T01:20:24;99364.28;;;26.90;50.54
55317;BME280;41178;48.956;8.130;2022-08-19T01:22:34;99332.88;;;27.69;49.64
55317;BME280;41178;48.956;8.130;2022-08-19T01:24:37;99338.38;;;27.58;50.08
55317;BME280;41178;48.956;8.130;2022-08-19T01:26:50;99344.97;;;27.52;50.08
55317;BME280;41178;48.956;8.130;2022-08-19T01:28:54;99331.56;;;27.95;49.14
55317;BME280;41178;48.956;8.130;2022-08-19T01:31:01;99336.75;;;27.97;49.15
55317;BME280;41178;48.956;8.130;2022-08-19T01:33:08;99349.69;;;27.86;49.32
55317;BME280;41178;48.956;8.130;2022-08-19T01:35:11;99348.00;;;27.90;49.21
55317;BME280;41178;48.956;8.130;2022-08-19T01:37:14;99348.25;;;27.99;49.46
55317;BME280;41178;48.956;8.130;2022-08-19T01:39:27;99360.03;;;28.29;48.54
55317;BME280;41178;48.956;8.130;2022-08-19T01:41:29;99361.72;;;28.25;48.67
55317;BME280;41178;48.956;8.130;2022-08-19T01:43:32;99367.56;;;28.08;49.16
55317;BME280;41178;48.956;8.130;2022-08-19T01:45:35;99373.41;;;27.96;49.51
55317;BME280;41178;48.956;8.130;2022-08-19T01:47:37;99375.47;;;27.70;50.62
55317;BME280;41178;48.956;8.130;2022-08-19T01:49:39;99361.94;;;27.94;49.49
55317;BME280;41178;48.956;8.130;2022-08-19T01:51:41;99366.31;;;27.90;49.88
55317;BME280;41178;48.956;8.130;2022-08-19T01:53:42;99369.13;;;27.79;50.45
55317;BME280;41178;48.956;8.130;2022-08-19T01:55:44;99350.56;;;27.76;50.28
55317;BME280;41178;48.956;8.130;2022-08-19T01:57:55;99363.50;;;28.00;49.90
55317;BME280;41178;48.956;8.130;2022-08-19T01:59:59;99354.09;;;28.22;49.46
55317;BME280;41178;48.956;8.130;2022-08-19T02:02:04;99351.44;;;28.41;49.51
55317;BME280;41178;48.956;8.130;2022-08-19T02:04:09;99353.78;;;27.89;50.43
55317;BME280;41178;48.956;8.130;2022-08-19T02:06:11;99342.41;;;28.16;49.70
55317;BME280;41178;48.956;8.130;2022-08-19T02:08:13;99352.91;;;27.49;50.58
55317;BME280;41178;48.956;8.130;2022-08-19T02:10:18;99349.09;;;27.94;50.38
55317;BME280;41178;48.956;8.130;2022-08-19T02:12:21;99348.59;;;27.87;50.25
55317;BME280;41178;48.956;8.130;2022-08-19T02:14:22;99354.16;;;27.72;50.69
55317;BME280;41178;48.956;8.130;2022-08-19T02:16:24;99346.25;;;27.65;51.25
55317;BME280;41178;48.956;8.130;2022-08-19T02:18:26;99362.13;;;27.63;50.49
55317;BME280;41178;48.956;8.130;2022-08-19T02:20:28;99357.59;;;28.27;49.38
55317;BME280;41178;48.956;8.130;2022-08-19T02:22:30;99362.53;;;27.36;51.36
55317;BME280;41178;48.956;8.130;2022-08-19T02:24:31;99356.59;;;27.73;50.78
55317;BME280;41178;48.956;8.130;2022-08-19T02:26:33;99351.06;;;27.84;50.27
55317;BME280;41178;48.956;8.130;2022-08-19T02:28:35;99351.22;;;28.03;50.35
55317;BME280;41178;48.956;8.130;2022-08-19T02:30:38;99350.59;;;28.16;49.72
55317;BME280;41178;48.956;8.130;2022-08-19T02:32:40;99351.41;;;28.11;50.20
55317;BME280;41178;48.956;8.130;2022-08-19T02:34:46;99361.72;;;27.85;50.53
55317;BME280;41178;48.956;8.130;2022-08-19T02:36:48;99351.34;;;27.87;50.57
55317;BME280;41178;48.956;8.130;2022-08-19T02:38:52;99351.06;;;27.89;50.95
55317;BME280;41178;48.956;8.130;2022-08-19T02:41:01;99340.84;;;28.34;49.85
55317;BME280;41178;48.956;8.130;2022-08-19T02:43:05;99351.69;;;28.15;49.93
55317;BME280;41178;48.956;8.130;2022-08-19T02:45:09;99351.69;;;28.15;50.06
55317;BME280;41178;48.956;8.130;2022-08-19T02:47:11;99347.28;;;28.14;50.17
55317;BME280;41178;48.956;8.130;2022-08-19T02:49:14;99344.06;;;27.72;50.62
55317;BME280;41178;48.956;8.130;2022-08-19T02:51:26;99343.63;;;27.94;50.56
55317;BME280;41178;48.956;8.130;2022-08-19T02:53:28;99340.41;;;27.87;51.17
55317;BME280;41178;48.956;8.130;2022-08-19T02:55:30;99344.63;;;28.04;50.07
55317;BME280;41178;48.956;8.130;2022-08-19T02:57:46;99336.66;;;27.73;51.36
55317;BME280;41178;48.956;8.130;2022-08-19T02:59:48;99335.34;;;28.05;50.50
55317;BME280;41178;48.956;8.130;2022-08-19T03:01:51;99334.53;;;27.65;51.03
55317;BME280;41178;48.956;8.130;2022-08-19T03:03:54;99341.59;;;27.71;51.20
55317;BME280;41178;48.956;8.130;2022-08-19T03:06:08;99339.53;;;27.92;50.39
55317;BME280;41178;48.956;8.130;2022-08-19T03:08:11;99346.75;;;27.77;50.53
55317;BME280;41178;48.956;8.130;2022-08-19T03:10:13;99357.75;;;28.02;49.83
55317;BME280;41178;48.956;8.130;2022-08-19T03:12:15;99354.97;;;27.72;50.54
55317;BME280;41178;48.956;8.130;2022-08-19T03:14:17;99355.47;;;27.79;49.66
55317;BME280;41178;48.956;8.130;2022-08-19T03:16:22;99350.25;;;27.38;50.60
55317;BME280;41178;48.956;8.130;2022-08-19T03:18:24;99345.44;;;27.70;49.48
55317;BME280;41178;48.956;8.130;2022-08-19T03:20:28;99344.75;;;27.88;49.58
55317;BME280;41178;48.956;8.130;2022-08-19T03:22:29;99350.84;;;27.75;48.98
55317;BME280;41178;48.956;8.130;2022-08-19T03:24:31;99360.50;;;28.02;48.61
55317;BME280;41178;48.956;8.130;2022-08-19T03:26:41;99364.34;;;28.00;48.24
55317;BME280;41178;48.956;8.130;2022-08-19T03:28:44;99363.50;;;27.60;48.97
55317;BME280;41178;48.956;8.130;2022-08-19T03:31:01;99367.25;;;27.75;48.55
55317;BME280;41178;48.956;8.130;2022-08-19T03:33:04;99367.34;;;27.54;48.85
55317;BME280;41178;48.956;8.130;2022-08-19T03:35:06;99366.25;;;27.55;48.70
55317;BME280;41178;48.956;8.130;2022-08-19T03:37:10;99367.66;;;27.48;49.27
55317;BME280;41178;48.956;8.130;2022-08-19T03:39:14;99369.25;;;27.54;48.79
55317;BME280;41178;48.956;8.130;2022-08-19T03:41:19;99368.44;;;27.63;48.61
55317;BME280;41178;48.956;8.130;2022-08-19T03:43:21;99367.00;;;27.16;49.10
55317;BME280;41178;48.956;8.130;2022-08-19T03:45:23;99369.72;;;27.01;49.33
55317;BME280;41178;48.956;8.130;2022-08-19T03:47:25;99366.38;;;27.35;48.61
55317;BME280;41178;48.956;8.130;2022-08-19T03:49:29;99374.38;;;26.95;49.55
55317;BME280;41178;48.956;8.130;2022-08-19T03:51:34;99379.66;;;26.56;49.92
55317;BME280;41178;48.956;8.130;2022-08-19T03:53:36;99372.78;;;26.79;50.04
55317;BME280;41178;48.956;8.130;2022-08-19T03:55:41;99365.16;;;26.81;50.11
55317;BME280;41178;48.956;8.130;2022-08-19T03:57:43;99372.78;;;26.79;49.86
55317;BME280;41178;48.956;8.130;2022-08-19T03:59:46;99369.22;;;27.59;48.59
55317;BME280;41178;48.956;8.130;2022-08-19T04:01:48;99379.25;;;27.14;49.15
55317;BME280;41178;48.956;8.130;2022-08-19T04:03:49;99370.00;;;27.04;49.78
55317;BME280;41178;48.956;8.130;2022-08-19T04:05:51;99370.88;;;26.89;50.12
55317;BME280;41178;48.956;8.130;2022-08-19T04:07:53;99358.91;;;26.49;50.93
55317;BME280;41178;48.956;8.130;2022-08-19T04:09:55;99357.84;;;26.61;50.66
55317;BME280;41178;48.956;8.130;2022-08-19T04:11:57;99368.63;;;27.12;49.31
55317;BME280;41178;48.956;8.130;2022-08-19T04:13:59;99376.03;;;27.06;49.42
55317;BME280;41178;48.956;8.130;2022-08-19T04:16:05;99377.34;;;27.14;48.85
55317;BME280;41178;48.956;8.130;2022-08-19T04:18:09;99372.53;;;26.49;50.67
55317;BME280;41178;48.956;8.130;2022-08-19T04:20:11;99364.25;;;27.11;49.55
55317;BME280;41178;48.956;8.130;2022-08-19T04:22:13;99365.56;;;27.29;48.68
55317;BME280;41178;48.956;8.130;2022-08-19T04:24:15;99380.38;;;27.07;48.92
55317;BME280;41178;48.956;8.130;2022-08-19T04:26:20;99373.91;;;26.52;50.52
55317;BME280;41178;48.956;8.130;2022-08-19T04:28:22;99363.69;;;27.19;49.15
55317;BME280;41178;48.956;8.130;2022-08-19T04:30:24;99375.00;;;26.66;49.89
55317;BME280;41178;48.956;8.130;2022-08-19T04:32:26;99373.88;;;26.88;49.11
55317;BME280;41178;48.956;8.130;2022-08-19T04:34:28;99372.00;;;26.68;49.51
55317;BME280;41178;48.956;8.130;2022-08-19T04:36:34;99350.06;;;27.04;49.42
55317;BME280;41178;48.956;8.130;2022-08-19T04:38:36;99368.72;;;26.35;50.71
55317;BME280;41178;48.956;8.130;2022-08-19T04:40:46;99357.66;;;27.22;49.20
55317;BME280;41178;48.956;8.130;2022-08-19T04:43:11;99377.19;;;26.49;49.88
55317;BME280;41178;48.956;8.130;2022-08-19T04:45:15;99364.09;;;26.61;50.27
55317;BME280;41178;48.956;8.130;2022-08-19T04:47:17;99373.66;;;26.53;50.23
55317;BME280;41178;48.956;8.130;2022-08-19T04:49:39;99367.63;;;26.46;50.23
55317;BME280;41178;48.956;8.130;2022-08-19T04:51:43;99367.66;;;26.51;50.91
55317;BME280;41178;48.956;8.130;2022-08-19T04:53:45;99368.16;;;26.79;50.09
55317;BME280;41178;48.956;8.130;2022-08-19T04:55:47;99372.53;;;26.65;50.17
55317;BME280;41178;48.956;8.130;2022-08-19T04:57:49;99373.31;;;25.78;52.13
55317;BME280;41178;48.956;8.130;2022-08-19T04:59:56;99360.22;;;26.88;50.04
55317;BME280;41178;48.956;8.130;2022-08-19T05:01:57;99377.94;;;25.93;51.47
55317;BME280;41178;48.956;8.130;2022-08-19T05:04:00;99385.19;;;25.41;52.62
55317;BME280;41178;48.956;8.130;2022-08-19T05:06:07;99381.00;;;26.17;51.10
55317;BME280;41178;48.956;8.130;2022-08-19T05:08:09;99389.56;;;25.52;52.32
55317;BME280;41178;48.956;8.130;2022-08-19T05:10:14;99394.84;;;26.87;49.89
55317;BME280;41178;48.956;8.130;2022-08-19T05:12:17;99400.81;;;27.05;49.01
55317;BME280;41178;48.956;8.130;2022-08-19T05:14:19;99404.91;;;27.13;48.99
55317;BME280;41178;48.956;8.130;2022-08-19T05:16:24;99396.31;;;27.50;48.65
55317;BME280;41178;48.956;8.130;2022-08-19T05:18:26;99407.34;;;27.19;48.70
55317;BME280;41178;48.956;8.130;2022-08-19T05:20:46;99417.88;;;27.52;48.23
55317;BME280;41178;48.956;8.130;2022-08-19T05:23:06;99422.94;;;27.84;47.60
55317;BME280;41178;48.956;8.130;2022-08-19T05:25:16;99423.84;;;27.64;48.11
55317;BME280;41178;48.956;8.130;2022-08-19T05:27:20;99421.19;;;27.43;48.49
55317;BME280;41178;48.956;8.130;2022-08-19T05:29:24;99433.25;;;27.27;48.63
55317;BME280;41178;48.956;8.130;2022-08-19T05:31:32;99438.22;;;27.15;49.02
55317;BME280;41178;48.956;8.130;2022-08-19T05:33:33;99437.38;;;27.14;48.72
55317;BME280;41178;48.956;8.130;2022-08-19T05:35:37;99422.72;;;26.59;50.44
55317;BME280;41178;48.956;8.130;2022-08-19T05:37:39;99435.81;;;26.62;49.97
55317;BME280;41178;48.956;8.130;2022-08-19T05:39:43;99432.44;;;27.32;48.61
55317;BME280;41178;48.956;8.130;2022-08-19T05:41:59;99452.13;;;27.18;48.99
55317;BME280;41178;48.956;8.130;2022-08-19T05:44:04;99452.34;;;27.32;48.82
55317;BME280;41178;48.956;8.130;2022-08-19T05:46:17;99446.91;;;27.22;48.50
55317;BME280;41178;48.956;8.130;2022-08-19T05:48:27;99446.41;;;26.89;49.26
55317;BME280;41178;48.956;8.130;2022-08-19T05:50:29;99450.59;;;27.67;48.14
55317;BME280;41178;48.956;8.130;2022-08-19T05:52:31;99452.88;;;27.34;48.48
55317;BME280;41178;48.956;8.130;2022-08-19T05:54:34;99459.50;;;26.97;49.09
55317;BME280;41178;48.956;8.130;2022-08-19T05:56:40;99459.75;;;27.01;49.57
55317;BME280;41178;48.956;8.130;2022-08-19T05:58:43;99469.56;;;27.17;49.21
55317;BME280;41178;48.956;8.130;2022-08-19T06:00:46;99471.06;;;27.70;48.23
55317;BME280;41178;48.956;8.130;2022-08-19T06:02:48;99460.81;;;27.31;49.06
55317;BME280;41178;48.956;8.130;2022-08-19T06:04:50;99466.22;;;27.41;48.63
55317;BME280;41178;48.956;8.130;2022-08-19T06:06:52;99468.63;;;27.63;48.59
55317;BME280;41178;48.956;8.130;2022-08-19T06:08:55;99464.28;;;27.57;48.73
55317;BME280;41178;48.956;8.130;2022-08-19T06:10:57;99449.56;;;28.08;47.31
55317;BME280;41178;48.956;8.130;2022-08-19T06:12:58;99472.00;;;27.29;48.97
55317;BME280;41178;48.956;8.130;2022-08-19T06:15:05;99470.28;;;27.59;48.08
55317;BME280;41178;48.956;8.130;2022-08-19T06:17:07;99469.28;;;27.99;47.27
55317;BME280;41178;48.956;8.130;2022-08-19T06:19:15;99466.19;;;27.61;48.05
55317;BME280;41178;48.956;8.130;2022-08-19T06:21:21;99461.81;;;27.66;47.83
55317;BME280;41178;48.956;8.130;2022-08-19T06:23:23;99456.63;;;27.54;48.23
55317;BME280;41178;48.956;8.130;2022-08-19T06:25:25;99462.38;;;27.62;47.96
55317;BME280;41178;48.956;8.130;2022-08-19T06:27:30;99460.22;;;27.44;48.49
55317;BME280;41178;48.956;8.130;2022-08-19T06:29:34;99451.81;;;27.30;48.38
55317;BME280;41178;48.956;8.130;2022-08-19T06:31:36;99457.78;;;27.37;48.72
55317;BME280;41178;48.956;8.130;2022-08-19T06:33:40;99457.72;;;27.53;48.56
55317;BME280;41178;48.956;8.130;2022-08-19T06:35:43;99468.97;;;27.41;48.19
55317;BME280;41178;48.956;8.130;2022-08-19T06:37:50;99460.72;;;27.56;48.29
55317;BME280;41178;48.956;8.130;2022-08-19T06:39:52;99475.44;;;27.71;47.50
55317;BME280;41178;48.956;8.130;2022-08-19T06:41:57;99477.09;;;27.61;47.92
55317;BME280;41178;48.956;8.130;2022-08-19T06:44:00;99478.44;;;27.69;47.89
55317;BME280;41178;48.956;8.130;2022-08-19T06:46:03;99471.13;;;28.09;46.98
55317;BME280;41178;48.956;8.130;2022-08-19T06:48:06;99481.78;;;28.11;46.53
55317;BME280;41178;48.956;8.130;2022-08-19T06:50:08;99478.63;;;28.38;46.08
55317;BME280;41178;48.956;8.130;2022-08-19T06:52:11;99496.34;;;28.41;46.01
55317;BME280;41178;48.956;8.130;2022-08-19T06:54:16;99492.91;;;27.70;47.70
55317;BME280;41178;48.956;8.130;2022-08-19T06:56:27;99485.53;;;27.75;47.10
55317;BME280;41178;48.956;8.130;2022-08-19T06:58:35;99479.00;;;28.21;46.34
55317;BME280;41178;48.956;8.130;2022-08-19T07:00:37;99490.47;;;28.23;46.41
55317;BME280;41178;48.956;8.130;2022-08-19T07:02:43;99483.16;;;28.08;46.72
55317;BME280;41178;48.956;8.130;2022-08-19T07:04:55;99479.75;;;27.77;47.68
55317;BME280;41178;48.956;8.130;2022-08-19T07:07:02;99476.56;;;28.14;46.58
55317;BME280;41178;48.956;8.130;2022-08-19T07:09:20;99483.00;;;28.34;46.34
55317;BME280;41178;48.956;8.130;2022-08-19T07:11:22;99486.84;;;28.72;45.00
55317;BME280;41178;48.956;8.130;2022-08-19T07:13:24;99487.72;;;28.28;45.66
55317;BME280;41178;48.956;8.130;2022-08-19T07:15:26;99483.25;;;28.77;44.96
55317;BME280;41178;48.956;8.130;2022-08-19T07:17:29;99497.03;;;28.62;45.54
55317;BME280;41178;48.956;8.130;2022-08-19T07:19:32;99484.34;;;27.92;46.14
55317;BME280;41178;48.956;8.130;2022-08-19T07:21:35;99489.34;;;28.69;44.41
55317;BME280;41178;48.956;8.130;2022-08-19T07:23:38;99495.56;;;28.74;44.43
55317;BME280;41178;48.956;8.130;2022-08-19T07:25:39;99493.53;;;28.51;45.21
55317;BME280;41178;48.956;8.130;2022-08-19T07:27:41;99483.88;;;28.29;44.76
55317;BME280;41178;48.956;8.130;2022-08-19T07:29:55;99486.66;;;28.93;43.86
55317;BME280;41178;48.956;8.130;2022-08-19T07:31:59;99492.06;;;28.98;44.03
55317;BME280;41178;48.956;8.130;2022-08-19T07:34:01;99485.59;;;28.15;44.78
55317;BME280;41178;48.956;8.130;2022-08-19T07:36:07;99490.94;;;28.75;44.16
55317;BME280;41178;48.956;8.130;2022-08-19T07:38:11;99480.91;;;28.60;43.86
55317;BME280;41178;48.956;8.130;2022-08-19T07:40:13;99482.00;;;28.59;44.00
55317;BME280;41178;48.956;8.130;2022-08-19T07:42:15;99482.66;;;29.09;43.53
55317;BME280;41178;48.956;8.130;2022-08-19T07:44:19;99484.25;;;28.07;44.64
55317;BME280;41178;48.956;8.130;2022-08-19T07:46:21;99478.19;;;28.60;44.36
55317;BME280;41178;48.956;8.130;2022-08-19T07:48:24;99478.66;;;27.83;45.68
55317;BME280;41178;48.956;8.130;2022-08-19T07:50:29;99485.53;;;27.65;46.01
55317;BME280;41178;48.956;8.130;2022-08-19T07:52:31;99468.81;;;28.32;45.28
55317;BME280;41178;48.956;8.130;2022-08-19T07:54:35;99473.22;;;28.62;44.32
55317;BME280;41178;48.956;8.130;2022-08-19T07:56:37;99469.28;;;27.99;45.60
55317;BME280;41178;48.956;8.130;2022-08-19T07:58:42;99457.97;;;28.22;44.90
55317;BME280;41178;48.956;8.130;2022-08-19T08:00:46;99459.97;;;28.45;45.09
55317;BME280;41178;48.956;8.130;2022-08-19T08:02:48;99454.59;;;27.85;45.22
55317;BME280;41178;48.956;8.130;2022-08-19T08:04:51;99459.44;;;28.43;44.45
55317;BME280;41178;48.956;8.130;2022-08-19T08:07:11;99463.53;;;28.01;45.12
55317;BME280;41178;48.956;8.130;2022-08-19T08:09:35;99450.97;;;27.40;45.80
55317;BME280;41178;48.956;8.130;2022-08-19T08:11:55;99458.03;;;28.46;44.50
55317;BME280;41178;48.956;8.130;2022-08-19T08:14:06;99463.31;;;27.92;44.82
55317;BME280;41178;48.956;8.130;2022-08-19T08:16:28;99453.41;;;28.81;44.24
55317;BME280;41178;48.956;8.130;2022-08-19T08:18:35;99469.69;;;28.22;44.92
55317;BME280;41178;48.956;8.130;2022-08-19T08:20:42;99466.59;;;28.73;43.81
55317;BME280;41178;48.956;8.130;2022-08-19T08:22:45;99464.06;;;28.82;44.07
55317;BME280;41178;48.956;8.130;2022-08-19T08:25:15;99467.44;;;28.98;43.72
55317;BME280;41178;48.956;8.130;2022-08-19T08:27:17;99469.59;;;27.93;44.68
55317;BME280;41178;48.956;8.130;2022-08-19T08:29:27;99465.50;;;27.90;44.76
55317;BME280;41178;48.956;8.130;2022-08-19T08:31:36;99471.91;;;27.55;45.23
55317;BME280;41178;48.956;8.130;2022-08-19T08:33:38;99455.16;;;27.87;44.58
55317;BME280;41178;48.956;8.130;2022-08-19T08:35:43;99475.13;;;28.96;43.14
55317;BME280;41178;48.956;8.130;2022-08-19T08:37:45;99482.13;;;28.83;43.30
55317;BME280;41178;48.956;8.130;2022-08-19T08:39:51;99471.41;;;29.64;42.36
55317;BME280;41178;48.956;8.130;2022-08-19T08:41:58;99479.16;;;27.90;44.62
55317;BME280;41178;48.956;8.130;2022-08-19T08:44:42;99479.28;;;29.23;42.72
55317;BME280;41178;48.956;8.130;2022-08-19T08:46:49;99475.06;;;29.55;42.35
55317;BME280;41178;48.956;8.130;2022-08-19T08:48:57;99491.88;;;28.89;43.17
55317;BME280;41178;48.956;8.130;2022-08-19T08:51:04;99487.91;;;28.77;43.48
55317;BME280;41178;48.956;8.130;2022-08-19T08:53:18;99480.97;;;28.05;44.86
55317;BME280;41178;48.956;8.130;2022-08-19T08:55:31;99475.44;;;28.60;43.77
55317;BME280;41178;48.956;8.130;2022-08-19T08:59:57;99476.84;;;28.18;45.03
55317;BME280;41178;48.956;8.130;2022-08-19T09:02:02;99471.81;;;28.99;43.69
55317;BME280;41178;48.956;8.130;2022-08-19T09:04:05;99465.41;;;28.06;45.09
55317;BME280;41178;48.956;8.130;2022-08-19T09:09:28;99464.97;;;28.67;43.55
55317;BME280;41178;48.956;8.130;2022-08-19T09:14:01;99467.53;;;28.59;43.41
55317;BME280;41178;48.956;8.130;2022-08-19T09:16:12;99470.28;;;28.88;43.19
55317;BME280;41178;48.956;8.130;2022-08-19T09:18:14;99477.53;;;29.32;42.80
55317;BME280;41178;48.956;8.130;2022-08-19T09:20:22;99478.59;;;28.43;44.27
55317;BME280;41178;48.956;8.130;2022-08-19T09:22:26;99480.44;;;27.38;45.23
55317;BME280;41178;48.956;8.130;2022-08-19T09:24:28;99485.19;;;28.37;43.37
55317;BME280;41178;48.956;8.130;2022-08-19T09:26:32;99468.09;;;29.43;42.23
55317;BME280;41178;48.956;8.130;2022-08-19T09:28:51;99480.16;;;29.13;42.89
55317;BME280;41178;48.956;8.130;2022-08-19T09:30:54;99491.91;;;29.43;42.26
55317;BME280;41178;48.956;8.130;2022-08-19T09:32:56;99493.44;;;28.66;43.17
55317;BME280;41178;48.956;8.130;2022-08-19T09:34:57;99488.63;;;29.89;41.75
55317;BME280;41178;48.956;8.130;2022-08-19T09:37:08;99484.50;;;29.92;41.23
55317;BME280;41178;48.956;8.130;2022-08-19T09:39:10;99487.69;;;28.68;41.67
55317;BME280;41178;48.956;8.130;2022-08-19T09:41:19;99484.13;;;29.31;41.85
55317;BME280;41178;48.956;8.130;2022-08-19T09:43:21;99493.38;;;29.35;41.61
55317;BME280;41178;48.956;8.130;2022-08-19T09:45:33;99500.19;;;29.86;40.76
55317;BME280;41178;48.956;8.130;2022-08-19T09:47:36;99498.50;;;29.66;40.68
55317;BME280;41178;48.956;8.130;2022-08-19T09:49:47;99498.19;;;29.73;41.20
55317;BME280;41178;48.956;8.130;2022-08-19T09:51:53;99476.63;;;30.04;41.46
55317;BME280;41178;48.956;8.130;2022-08-19T09:54:02;99474.03;;;29.94;41.12
55317;BME280;41178;48.956;8.130;2022-08-19T09:56:06;99477.25;;;30.39;40.46
55317;BME280;41178;48.956;8.130;2022-08-19T09:58:09;99490.00;;;30.30;40.38
55317;BME280;41178;48.956;8.130;2022-08-19T10:00:12;99493.81;;;29.91;41.08
55317;BME280;41178;48.956;8.130;2022-08-19T10:02:13;99506.25;;;29.59;41.07
55317;BME280;41178;48.956;8.130;2022-08-19T10:04:22;99482.00;;;30.66;40.15
55317;BME280;41178;48.956;8.130;2022-08-19T10:06:28;99500.72;;;30.64;39.65
55317;BME280;41178;48.956;8.130;2022-08-19T10:08:47;99495.59;;;30.90;39.47
55317;BME280;41178;48.956;8.130;2022-08-19T10:10:52;99503.41;;;29.21;41.93
55317;BME280;41178;48.956;8.130;2022-08-19T10:12:53;99500.19;;;29.38;41.20
55317;BME280;41178;48.956;8.130;2022-08-19T10:14:57;99503.47;;;29.40;40.95
55317;BME280;41178;48.956;8.130;2022-08-19T10:16:58;99495.22;;;30.07;40.03
55317;BME280;41178;48.956;8.130;2022-08-19T10:19:17;99481.47;;;30.31;39.83
55317;BME280;41178;48.956;8.130;2022-08-19T10:21:31;99494.50;;;30.91;38.87
55317;BME280;41178;48.956;8.130;2022-08-19T10:23:36;99496.84;;;30.84;39.35
55317;BME280;41178;48.956;8.130;2022-08-19T10:25:38;99491.97;;;30.43;39.54
55317;BME280;41178;48.956;8.130;2022-08-19T10:27:43;99491.00;;;30.53;39.67
55317;BME280;41178;48.956;8.130;2022-08-19T10:29:51;99475.38;;;30.15;40.78
55317;BME280;41178;48.956;8.130;2022-08-19T10:31:55;99477.25;;;30.20;40.34
55317;BME280;41178;48.956;8.130;2022-08-19T10:34:03;99480.13;;;30.10;40.71
55317;BME280;41178;48.956;8.130;2022-08-19T10:36:15;99469.28;;;30.75;39.88
55317;BME280;41178;48.956;8.130;2022-08-19T10:38:19;99479.44;;;30.18;40.63
55317;BME280;41178;48.956;8.130;2022-08-19T10:40:31;99473.31;;;29.88;40.57
55317;BME280;41178;48.956;8.130;2022-08-19T10:42:34;99460.19;;;30.42;40.27
55317;BME280;41178;48.956;8.130;2022-08-19T10:44:36;99470.41;;;29.98;40.47
55317;BME280;41178;48.956;8.130;2022-08-19T10:46:41;99458.47;;;29.89;40.54
55317;BME280;41178;48.956;8.130;2022-08-19T10:48:49;99460.63;;;29.73;40.71
55317;BME280;41178;48.956;8.130;2022-08-19T10:50:51;99473.38;;;30.40;39.68
55317;BME280;41178;48.956;8.130;2022-08-19T10:53:28;99465.16;;;29.10;41.42
55317;BME280;41178;48.956;8.130;2022-08-19T10:55:30;99466.97;;;28.91;41.86
55317;BME280;41178;48.956;8.130;2022-08-19T10:57:51;99466.06;;;30.35;40.10
55317;BME280;41178;48.956;8.130;2022-08-19T11:00:05;99452.78;;;30.43;40.05
55317;BME280;41178;48.956;8.130;2022-08-19T11:03:24;99434.41;;;29.43;41.54
55317;BME280;41178;48.956;8.130;2022-08-19T11:05:26;99435.59;;;29.99;40.88
55317;BME280;41178;48.956;8.130;2022-08-19T11:07:27;99442.41;;;30.20;40.69
55317;BME280;41178;48.956;8.130;2022-08-19T11:09:29;99431.81;;;30.33;40.89
55317;BME280;41178;48.956;8.130;2022-08-19T11:11:35;99438.63;;;30.35;40.22
55317;BME280;41178;48.956;8.130;2022-08-19T11:13:41;99442.69;;;30.71;39.98